Time,TemperatureF,DewpointF,PressureIn,WindDirection,WindDirectionDegrees,WindSpeedMPH,WindSpeedGustMPH,Humidity,HourlyPrecipIn,Conditions,Clouds,dailyrainin,SolarRadiationWatts/m^2,SoftwareType,DateUTC
2013-03-19 00:00:00,67.6,65.8,29.94,ESE,107,1.0,3.0,94,0.00,,BKN055,0.14,74.00,VWS V14.01,2013-03-19 04:00:00,
2013-03-19 00:05:00,67.6,65.8,29.94,ESE,107,0.0,3.0,94,0.00,,BKN055,0.00,74.00,VWS V14.01,2013-03-19 04:05:00,
2013-03-19 00:10:00,67.6,65.8,29.95,ESE,107,0.0,2.0,94,0.00,,BKN055,0.00,74.00,VWS V14.01,2013-03-19 04:10:00,
2013-03-19 00:15:00,67.6,65.8,29.94,ESE,107,1.0,1.0,94,0.00,,BKN055,0.00,74.00,VWS V14.01,2013-03-19 04:15:00,
2013-03-19 00:20:00,67.6,65.8,29.94,ESE,107,0.0,1.0,94,0.00,,BKN055,0.00,74.00,VWS V14.01,2013-03-19 04:20:00,
2013-03-19 00:25:00,67.6,65.8,29.94,ESE,107,0.0,3.0,94,0.00,,BKN055,0.00,74.00,VWS V14.01,2013-03-19 04:25:00,
2013-03-19 00:30:00,67.6,65.8,29.93,ESE,107,0.0,3.0,94,0.00,,BKN055,0.00,74.00,VWS V14.01,2013-03-19 04:30:00,
2013-03-19 00:35:00,67.6,65.8,29.93,ESE,107,2.0,3.0,94,0.00,,BKN055,0.00,74.00,VWS V14.01,2013-03-19 04:35:00,
2013-03-19 00:40:00,67.5,65.7,29.92,ESE,107,2.0,3.0,94,0.00,,BKN055,0.00,74.00,VWS V14.01,2013-03-19 04:40:00,
2013-03-19 00:45:00,67.5,65.7,29.92,ESE,107,2.0,4.0,94,0.00,,BKN055,0.00,74.00,VWS V14.01,2013-03-19 04:45:00,
2013-03-19 00:50:00,67.6,65.8,29.92,ESE,114,2.0,4.0,94,0.00,,BKN055,0.00,74.00,VWS V14.01,2013-03-19 04:50:00,
2013-03-19 00:55:00,67.6,65.8,29.92,ESE,115,1.0,3.0,94,0.00,,BKN055,0.00,74.00,VWS V14.01,2013-03-19 04:55:00,
2013-03-19 01:00:00,67.6,65.8,29.92,ESE,115,2.0,4.0,94,0.00,,BKN055,0.00,74.00,VWS V14.01,2013-03-19 05:00:00,
2013-03-19 01:05:00,67.6,65.8,29.92,SSE,165,2.0,5.0,94,0.00,,BKN055,0.00,74.00,VWS V14.01,2013-03-19 05:05:00,
2013-03-19 01:10:00,67.6,65.8,29.92,SE,146,3.0,6.0,94,0.00,,BKN055,0.00,74.00,VWS V14.01,2013-03-19 05:10:00,
2013-03-19 01:15:00,67.6,65.8,29.92,SSE,154,0.0,4.0,94,0.01,,BKN055,0.01,74.00,VWS V14.01,2013-03-19 05:15:00,
2013-03-19 01:20:00,67.6,65.8,29.92,South,180,3.0,3.0,94,0.01,,BKN055,0.01,74.00,VWS V14.01,2013-03-19 05:20:00,
2013-03-19 01:25:00,67.6,65.8,29.92,South,183,5.0,6.0,94,0.01,,BKN055,0.01,74.00,VWS V14.01,2013-03-19 05:25:00,
2013-03-19 01:30:00,67.6,65.8,29.92,SE,143,3.0,6.0,94,0.01,,BKN055,0.01,74.00,VWS V14.01,2013-03-19 05:30:00,
2013-03-19 01:35:00,67.7,65.9,29.92,SE,136,0.0,5.0,94,0.01,,BKN055,0.01,74.00,VWS V14.01,2013-03-19 05:35:00,
2013-03-19 01:40:00,67.7,65.9,29.92,SSE,154,4.0,5.0,94,0.01,,BKN055,0.01,74.00,VWS V14.01,2013-03-19 05:40:00,
2013-03-19 01:45:00,67.8,66.0,29.91,South,171,3.0,7.0,94,0.01,,BKN055,0.01,74.00,VWS V14.01,2013-03-19 05:45:00,
2013-03-19 01:50:00,67.8,66.0,29.91,South,170,3.0,5.0,94,0.01,,BKN055,0.01,74.00,VWS V14.01,2013-03-19 05:50:00,
2013-03-19 01:55:00,67.9,66.1,29.91,South,186,2.0,6.0,94,0.01,,BKN055,0.01,74.00,VWS V14.01,2013-03-19 05:55:00,
2013-03-19 02:00:00,67.9,66.1,29.91,SSE,163,2.0,6.0,94,0.01,,BKN055,0.01,74.00,VWS V14.01,2013-03-19 06:00:00,
2013-03-19 02:05:00,68.0,66.2,29.91,SSE,160,0.0,4.0,94,0.01,,BKN055,0.01,74.00,VWS V14.01,2013-03-19 06:05:00,
2013-03-19 02:10:00,68.1,66.3,29.91,SSE,163,2.0,6.0,94,0.01,,BKN055,0.01,74.00,VWS V14.01,2013-03-19 06:10:00,
2013-03-19 02:15:00,68.1,66.3,29.90,South,175,3.0,6.0,94,0.00,,BKN055,0.01,74.00,VWS V14.01,2013-03-19 06:15:00,
2013-03-19 02:20:00,68.1,66.3,29.90,South,170,3.0,6.0,94,0.00,,BKN055,0.01,74.00,VWS V14.01,2013-03-19 06:20:00,
2013-03-19 02:25:00,68.2,66.4,29.90,South,178,4.0,6.0,94,0.00,,BKN055,0.01,74.00,VWS V14.01,2013-03-19 06:25:00,
2013-03-19 02:30:00,68.2,66.4,29.90,South,175,3.0,6.0,94,0.00,,BKN055,0.01,74.00,VWS V14.01,2013-03-19 06:30:00,
2013-03-19 02:35:00,68.2,66.4,29.90,SSW,198,2.0,6.0,94,0.00,,BKN055,0.01,74.00,VWS V14.01,2013-03-19 06:35:00,
2013-03-19 02:40:00,68.2,66.4,29.90,SSW,202,3.0,5.0,94,0.00,,BKN055,0.01,74.00,VWS V14.01,2013-03-19 06:40:00,
2013-03-19 02:45:00,68.1,66.6,29.91,SSW,210,3.0,5.0,95,0.00,,BKN055,0.01,74.00,VWS V14.01,2013-03-19 06:45:00,
2013-03-19 02:50:00,68.1,66.6,29.91,SW,219,4.0,5.0,95,0.00,,BKN055,0.01,74.00,VWS V14.01,2013-03-19 06:50:00,
2013-03-19 02:55:00,68.2,66.7,29.91,SSW,213,1.0,2.0,95,0.00,,BKN055,0.01,74.00,VWS V14.01,2013-03-19 06:55:00,
2013-03-19 03:00:00,68.2,66.7,29.91,SW,223,1.0,2.0,95,0.00,,BKN055,0.01,74.00,VWS V14.01,2013-03-19 07:00:00,
2013-03-19 03:05:00,68.3,66.8,29.91,SSW,201,7.0,7.0,95,0.00,,BKN055,0.01,74.00,VWS V14.01,2013-03-19 07:05:00,
2013-03-19 03:10:00,68.5,66.7,29.90,SSE,163,2.0,6.0,94,0.00,,BKN055,0.01,74.00,VWS V14.01,2013-03-19 07:10:00,
2013-03-19 03:15:00,68.6,66.8,29.90,South,185,3.0,6.0,94,0.00,,BKN055,0.01,74.00,VWS V14.01,2013-03-19 07:15:00,
2013-03-19 03:20:00,68.8,67.3,29.89,SSE,159,4.0,9.0,95,0.00,,BKN055,0.01,74.00,VWS V14.01,2013-03-19 07:20:00,
2013-03-19 03:25:00,69.0,67.5,29.88,South,177,4.0,9.0,95,0.00,,BKN055,0.01,74.00,VWS V14.01,2013-03-19 07:25:00,
2013-03-19 03:30:00,69.1,67.6,29.87,South,184,11.0,11.0,95,0.00,,BKN055,0.01,74.00,VWS V14.01,2013-03-19 07:30:00,
2013-03-19 03:35:00,69.3,67.8,29.86,SSW,197,6.0,10.0,95,0.00,,BKN055,0.01,74.00,VWS V14.01,2013-03-19 07:35:00,
2013-03-19 03:40:00,69.5,68.0,29.85,SSE,155,6.0,12.0,95,0.00,,BKN055,0.01,74.00,VWS V14.01,2013-03-19 07:40:00,
2013-03-19 03:45:00,69.7,68.2,29.85,South,184,6.0,9.0,95,0.00,,BKN055,0.01,74.00,VWS V14.01,2013-03-19 07:45:00,
2013-03-19 03:50:00,69.9,68.4,29.84,South,178,6.0,12.0,95,0.00,,BKN055,0.01,74.00,VWS V14.01,2013-03-19 07:50:00,
2013-03-19 03:55:00,70.0,68.5,29.84,South,178,3.0,11.0,95,0.00,,BKN055,0.01,74.00,VWS V14.01,2013-03-19 07:55:00,
2013-03-19 04:00:00,70.2,68.7,29.83,South,170,0.0,16.0,95,0.00,,BKN055,0.01,74.00,VWS V14.01,2013-03-19 08:00:00,
2013-03-19 04:05:00,70.3,68.8,29.83,SW,218,15.0,17.0,95,0.00,,BKN055,0.01,74.00,VWS V14.01,2013-03-19 08:05:00,
2013-03-19 04:10:00,70.4,68.9,29.82,SSE,155,4.0,14.0,95,0.00,,BKN055,0.01,74.00,VWS V14.01,2013-03-19 08:10:00,
2013-03-19 04:15:00,70.4,68.9,29.81,South,180,10.0,16.0,95,0.01,,BKN055,0.02,74.00,VWS V14.01,2013-03-19 08:15:00,
2013-03-19 04:20:00,70.5,69.0,29.81,SSE,159,8.0,11.0,95,0.01,,BKN055,0.02,74.00,VWS V14.01,2013-03-19 08:20:00,
2013-03-19 04:25:00,70.6,69.1,29.80,SSE,150,9.0,18.0,95,0.01,,BKN055,0.02,74.00,VWS V14.01,2013-03-19 08:25:00,
2013-03-19 04:30:00,70.7,69.2,29.77,SE,138,13.0,15.0,95,0.01,,BKN055,0.02,74.00,VWS V14.01,2013-03-19 08:30:00,
2013-03-19 04:35:00,70.7,69.2,29.78,SSW,195,4.0,18.0,95,0.01,,BKN055,0.02,74.00,VWS V14.01,2013-03-19 08:35:00,
2013-03-19 04:40:00,70.7,69.2,29.79,South,173,7.0,20.0,95,0.01,,BKN055,0.02,74.00,VWS V14.01,2013-03-19 08:40:00,
2013-03-19 04:45:00,70.8,69.3,29.80,SSE,161,5.0,11.0,95,0.01,,BKN055,0.02,74.00,VWS V14.01,2013-03-19 08:45:00,
2013-03-19 04:50:00,70.8,69.3,29.81,SSE,164,10.0,11.0,95,0.01,,BKN055,0.02,74.00,VWS V14.01,2013-03-19 08:50:00,
2013-03-19 04:55:00,70.8,69.3,29.85,NNW,338,6.0,7.0,95,0.01,,BKN055,0.02,74.00,VWS V14.01,2013-03-19 08:55:00,
2013-03-19 05:00:00,70.8,69.3,29.87,WNW,290,8.0,13.0,95,0.01,,BKN055,0.02,74.00,VWS V14.01,2013-03-19 09:00:00,
2013-03-19 05:05:00,70.6,69.1,29.88,North,349,3.0,6.0,95,0.01,,BKN055,0.02,74.00,VWS V14.01,2013-03-19 09:05:00,
2013-03-19 05:10:00,70.6,69.1,29.88,NW,322,5.0,8.0,95,0.01,,BKN055,0.02,74.00,VWS V14.01,2013-03-19 09:10:00,
2013-03-19 05:15:00,70.6,69.1,29.88,North,351,4.0,4.0,95,0.00,,BKN055,0.02,74.00,VWS V14.01,2013-03-19 09:15:00,
2013-03-19 05:20:00,70.7,69.2,29.88,SW,229,3.0,6.0,95,0.00,,BKN055,0.02,74.00,VWS V14.01,2013-03-19 09:20:00,
2013-03-19 05:25:00,70.7,69.2,29.87,WNW,288,5.0,5.0,95,0.00,,BKN055,0.02,74.00,VWS V14.01,2013-03-19 09:25:00,
2013-03-19 05:30:00,70.6,68.8,29.88,NNW,327,3.0,5.0,94,0.00,,BKN055,0.02,74.00,VWS V14.01,2013-03-19 09:30:00,
2013-03-19 05:35:00,70.8,69.3,29.89,NW,325,4.0,5.0,95,0.00,,BKN055,0.02,74.00,VWS V14.01,2013-03-19 09:35:00,
2013-03-19 05:40:00,70.9,69.1,29.90,NW,324,4.0,4.0,94,0.00,,BKN055,0.02,74.00,VWS V14.01,2013-03-19 09:40:00,
2013-03-19 05:45:00,70.9,69.1,29.90,NW,313,0.0,3.0,94,0.00,,BKN055,0.02,74.00,VWS V14.01,2013-03-19 09:45:00,
2013-03-19 05:50:00,71.0,69.2,29.90,NW,311,2.0,4.0,94,0.00,,BKN055,0.02,74.00,VWS V14.01,2013-03-19 09:50:00,
2013-03-19 05:55:00,71.0,69.2,29.90,NW,306,3.0,4.0,94,0.00,,BKN055,0.02,74.00,VWS V14.01,2013-03-19 09:55:00,
2013-03-19 06:00:00,70.9,69.1,29.91,WNW,300,6.0,6.0,94,0.00,,BKN055,0.02,74.00,VWS V14.01,2013-03-19 10:00:00,
2013-03-19 06:05:00,70.9,69.1,29.91,NW,305,4.0,6.0,94,0.00,,BKN055,0.02,74.00,VWS V14.01,2013-03-19 10:05:00,
2013-03-19 06:10:00,70.8,69.0,29.91,WNW,285,3.0,6.0,94,0.00,,BKN055,0.02,74.00,VWS V14.01,2013-03-19 10:10:00,
2013-03-19 06:15:00,70.8,68.7,29.91,West,277,5.0,7.0,93,0.00,,BKN055,0.02,74.00,VWS V14.01,2013-03-19 10:15:00,
2013-03-19 06:20:00,70.7,68.6,29.91,West,263,1.0,5.0,93,0.00,,BKN055,0.02,74.00,VWS V14.01,2013-03-19 10:20:00,
2013-03-19 06:25:00,70.7,68.6,29.91,West,262,1.0,4.0,93,0.00,,BKN055,0.02,74.00,VWS V14.01,2013-03-19 10:25:00,
2013-03-19 06:30:00,70.7,68.6,29.91,West,262,4.0,4.0,93,0.00,,BKN055,0.02,74.00,VWS V14.01,2013-03-19 10:30:00,
2013-03-19 06:35:00,70.6,68.5,29.91,SW,235,0.0,2.0,93,0.00,,BKN055,0.02,74.00,VWS V14.01,2013-03-19 10:35:00,
2013-03-19 06:40:00,70.5,68.1,29.91,WSW,246,2.0,3.0,92,0.00,,BKN055,0.02,74.00,VWS V14.01,2013-03-19 10:40:00,
2013-03-19 06:45:00,70.4,68.0,29.91,WSW,246,2.0,2.0,92,0.00,,BKN055,0.02,74.00,VWS V14.01,2013-03-19 10:45:00,
2013-03-19 06:50:00,70.4,68.0,29.91,WSW,246,1.0,4.0,92,0.00,,BKN055,0.02,74.00,VWS V14.01,2013-03-19 10:50:00,
2013-03-19 06:55:00,70.4,68.0,29.92,West,259,2.0,5.0,92,0.00,,BKN055,0.02,74.00,VWS V14.01,2013-03-19 10:55:00,
2013-03-19 07:00:00,70.3,67.9,29.93,West,261,5.0,8.0,92,0.00,,BKN055,0.02,74.00,VWS V14.01,2013-03-19 11:00:00,
2013-03-19 07:05:00,70.2,67.8,29.93,WSW,257,3.0,5.0,92,0.00,,BKN055,0.02,74.00,VWS V14.01,2013-03-19 11:05:00,
2013-03-19 07:10:00,70.1,67.7,29.93,SW,217,2.0,4.0,92,0.00,,BKN055,0.02,74.00,VWS V14.01,2013-03-19 11:10:00,
2013-03-19 07:15:00,70.0,67.6,29.93,SW,217,0.0,2.0,92,0.00,,BKN055,0.02,74.00,VWS V14.01,2013-03-19 11:15:00,
2013-03-19 07:20:00,69.9,67.5,29.93,SW,217,1.0,4.0,92,0.00,,BKN055,0.02,76.00,VWS V14.01,2013-03-19 11:20:00,
2013-03-19 07:25:00,69.9,67.5,29.93,SW,219,1.0,3.0,92,0.00,,BKN055,0.02,76.00,VWS V14.01,2013-03-19 11:25:00,
2013-03-19 07:30:00,69.8,67.4,29.93,SW,227,3.0,5.0,92,0.00,,BKN055,0.02,77.00,VWS V14.01,2013-03-19 11:30:00,
2013-03-19 07:35:00,69.7,67.3,29.93,SW,224,0.0,1.0,92,0.00,,BKN055,0.02,81.00,VWS V14.01,2013-03-19 11:35:00,
2013-03-19 07:40:00,69.7,67.3,29.93,WSW,245,0.0,2.0,92,0.00,,BKN055,0.02,86.00,VWS V14.01,2013-03-19 11:40:00,
2013-03-19 07:45:00,69.7,67.3,29.93,WSW,244,0.0,2.0,92,0.00,,BKN055,0.02,93.00,VWS V14.01,2013-03-19 11:45:00,
2013-03-19 07:50:00,69.7,67.3,29.94,WSW,239,0.0,3.0,92,0.00,,BKN055,0.02,105.00,VWS V14.01,2013-03-19 11:50:00,
2013-03-19 07:55:00,69.6,67.2,29.94,SW,234,1.0,4.0,92,0.00,,BKN055,0.02,107.00,VWS V14.01,2013-03-19 11:55:00,
2013-03-19 08:00:00,69.6,67.2,29.94,SW,229,0.0,4.0,92,0.00,,BKN055,0.02,104.00,VWS V14.01,2013-03-19 12:00:00,
2013-03-19 08:05:00,69.7,67.3,29.95,SSW,209,1.0,4.0,92,0.00,,BKN055,0.02,98.00,VWS V14.01,2013-03-19 12:05:00,
2013-03-19 08:10:00,69.7,67.3,29.94,SSW,207,2.0,3.0,92,0.00,,BKN180,0.02,104.00,VWS V14.01,2013-03-19 12:10:00,
2013-03-19 08:15:00,69.7,67.3,29.95,SW,222,3.0,6.0,92,0.00,,BKN180,0.02,130.00,VWS V14.01,2013-03-19 12:15:00,
2013-03-19 08:20:00,69.7,67.3,29.95,WSW,257,6.0,9.0,92,0.00,,BKN180,0.02,139.00,VWS V14.01,2013-03-19 12:20:00,
2013-03-19 08:25:00,69.8,67.4,29.95,West,278,3.0,5.0,92,0.00,,BKN180,0.02,134.00,VWS V14.01,2013-03-19 12:25:00,
2013-03-19 08:30:00,69.9,67.5,29.95,West,259,3.0,9.0,92,0.00,,BKN180,0.02,134.00,VWS V14.01,2013-03-19 12:30:00,
2013-03-19 08:35:00,69.9,67.5,29.95,WSW,258,5.0,12.0,92,0.00,,BKN180,0.02,123.00,VWS V14.01,2013-03-19 12:35:00,
2013-03-19 08:40:00,70.0,67.6,29.94,WSW,244,2.0,6.0,92,0.00,,BKN180,0.02,105.00,VWS V14.01,2013-03-19 12:40:00,
2013-03-19 08:45:00,70.0,67.6,29.94,WSW,251,2.0,6.0,92,0.00,,BKN180,0.02,105.00,VWS V14.01,2013-03-19 12:45:00,
2013-03-19 08:50:00,70.0,67.6,29.95,West,270,2.0,6.0,92,0.00,,BKN180,0.02,113.00,VWS V14.01,2013-03-19 12:50:00,
2013-03-19 08:55:00,70.0,67.9,29.94,WNW,284,4.0,5.0,93,0.00,,BKN180,0.02,137.00,VWS V14.01,2013-03-19 12:55:00,
2013-03-19 09:00:00,70.0,67.9,29.94,WNW,292,4.0,7.0,93,0.00,,BKN180,0.02,153.00,VWS V14.01,2013-03-19 13:00:00,
2013-03-19 09:05:00,70.1,68.0,29.94,West,271,5.0,8.0,93,0.00,,BKN180,0.02,137.00,VWS V14.01,2013-03-19 13:05:00,
2013-03-19 09:10:00,70.1,68.0,29.94,WNW,283,2.0,5.0,93,0.00,,BKN070,0.02,132.00,VWS V14.01,2013-03-19 13:10:00,
2013-03-19 09:15:00,70.1,68.0,29.94,WNW,299,7.0,7.0,93,0.00,,BKN070,0.02,146.00,VWS V14.01,2013-03-19 13:15:00,
2013-03-19 09:20:00,70.1,68.0,29.94,WNW,294,3.0,5.0,93,0.00,,BKN070,0.02,144.00,VWS V14.01,2013-03-19 13:20:00,
2013-03-19 09:25:00,70.1,68.0,29.94,NW,313,2.0,5.0,93,0.00,,BKN070,0.02,142.00,VWS V14.01,2013-03-19 13:25:00,
2013-03-19 09:30:00,70.1,68.0,29.94,WNW,293,0.0,4.0,93,0.00,,BKN070,0.02,146.00,VWS V14.01,2013-03-19 13:30:00,
2013-03-19 09:35:00,70.1,68.0,29.94,West,280,5.0,5.0,93,0.00,,BKN070,0.02,142.00,VWS V14.01,2013-03-19 13:35:00,
2013-03-19 09:40:00,70.1,68.0,29.94,NW,312,3.0,5.0,93,0.00,,BKN070,0.02,146.00,VWS V14.01,2013-03-19 13:40:00,
2013-03-19 09:45:00,69.9,67.8,29.94,WNW,302,3.0,7.0,93,0.00,,BKN070,0.02,169.00,VWS V14.01,2013-03-19 13:45:00,
2013-03-19 09:50:00,69.9,67.8,29.94,WNW,288,4.0,5.0,93,0.00,,BKN070,0.02,181.00,VWS V14.01,2013-03-19 13:50:00,
2013-03-19 09:55:00,69.9,67.8,29.94,WNW,289,3.0,4.0,93,0.00,,BKN070,0.02,165.00,VWS V14.01,2013-03-19 13:55:00,
2013-03-19 10:00:00,69.9,67.8,29.94,NW,304,1.0,5.0,93,0.00,,BKN070,0.02,158.00,VWS V14.01,2013-03-19 14:00:00,
2013-03-19 10:05:00,69.8,67.7,29.93,NW,304,0.0,0.0,93,0.00,,BKN070,0.02,162.00,VWS V14.01,2013-03-19 14:05:00,
2013-03-19 10:10:00,69.8,67.7,29.93,NW,305,3.0,4.0,93,0.00,,BKN110,0.02,156.00,VWS V14.01,2013-03-19 14:10:00,
2013-03-19 10:15:00,69.7,67.6,29.94,NNW,343,2.0,4.0,93,0.00,,BKN110,0.02,174.00,VWS V14.01,2013-03-19 14:15:00,
2013-03-19 10:20:00,69.7,67.3,29.95,NW,318,2.0,7.0,92,0.00,,BKN110,0.02,181.00,VWS V14.01,2013-03-19 14:20:00,
2013-03-19 10:25:00,69.7,67.3,29.95,NW,311,5.0,6.0,92,0.00,,BKN110,0.02,174.00,VWS V14.01,2013-03-19 14:25:00,
2013-03-19 10:30:00,69.7,67.3,29.96,NW,311,3.0,6.0,92,0.00,,BKN110,0.02,176.00,VWS V14.01,2013-03-19 14:30:00,
2013-03-19 10:35:00,69.5,67.1,29.96,NW,309,0.0,4.0,92,0.00,,BKN110,0.02,195.00,VWS V14.01,2013-03-19 14:35:00,
2013-03-19 10:40:00,69.6,67.2,29.98,WNW,303,3.0,6.0,92,0.00,,BKN110,0.02,218.00,VWS V14.01,2013-03-19 14:40:00,
2013-03-19 10:45:00,69.7,67.3,29.97,WNW,303,2.0,2.0,92,0.00,,BKN110,0.02,246.00,VWS V14.01,2013-03-19 14:45:00,
2013-03-19 10:50:00,69.8,67.4,29.96,WNW,303,1.0,1.0,92,0.00,,BKN110,0.02,281.00,VWS V14.01,2013-03-19 14:50:00,
2013-03-19 10:55:00,70.0,67.6,29.96,WNW,303,2.0,3.0,92,0.00,,BKN110,0.02,313.00,VWS V14.01,2013-03-19 14:55:00,
2013-03-19 11:00:00,70.1,67.7,29.96,North,5,2.0,4.0,92,0.00,,BKN110,0.02,371.00,VWS V14.01,2013-03-19 15:00:00,
2013-03-19 11:05:00,70.3,67.9,29.97,NNW,335,5.0,5.0,92,0.00,,OVC110,0.02,422.00,VWS V14.01,2013-03-19 15:05:00,
2013-03-19 11:10:00,70.3,67.6,29.96,North,349,2.0,7.0,91,0.00,,OVC110,0.02,411.00,VWS V14.01,2013-03-19 15:10:00,
2013-03-19 11:15:00,70.6,67.8,29.97,NNW,339,1.0,5.0,91,0.00,,OVC110,0.02,404.00,VWS V14.01,2013-03-19 15:15:00,
2013-03-19 11:20:00,70.6,67.5,29.98,North,355,7.0,7.0,90,0.00,,OVC110,0.02,413.00,VWS V14.01,2013-03-19 15:20:00,
2013-03-19 11:25:00,70.9,67.8,29.98,WNW,302,5.0,7.0,90,0.00,,OVC110,0.02,417.00,VWS V14.01,2013-03-19 15:25:00,
2013-03-19 11:30:00,71.0,67.6,29.98,NW,325,4.0,6.0,89,0.00,,OVC110,0.02,438.00,VWS V14.01,2013-03-19 15:30:00,
2013-03-19 11:35:00,71.3,67.9,29.98,NNW,344,4.0,5.0,89,0.00,,OVC110,0.02,506.00,VWS V14.01,2013-03-19 15:35:00,
2013-03-19 11:40:00,71.6,67.9,29.98,WNW,286,1.0,3.0,88,0.00,,OVC110,0.02,573.00,VWS V14.01,2013-03-19 15:40:00,
2013-03-19 11:45:00,72.1,68.0,29.98,NNW,329,3.0,4.0,87,0.00,,OVC110,0.02,550.00,VWS V14.01,2013-03-19 15:45:00,
2013-03-19 11:50:00,72.3,67.9,29.97,NW,324,3.0,4.0,86,0.00,,OVC110,0.02,515.00,VWS V14.01,2013-03-19 15:50:00,
2013-03-19 11:55:00,72.7,67.9,29.98,NW,317,6.0,6.0,85,0.00,,OVC110,0.02,515.00,VWS V14.01,2013-03-19 15:55:00,
2013-03-19 12:00:00,73.0,67.9,29.98,NW,319,4.0,7.0,84,0.00,,OVC150,0.02,478.00,VWS V14.01,2013-03-19 16:00:00,
2013-03-19 12:05:00,73.2,68.1,29.99,WNW,287,7.0,9.0,84,0.00,,OVC150,0.02,541.00,VWS V14.01,2013-03-19 16:05:00,
2013-03-19 12:10:00,73.1,67.6,29.99,WNW,297,3.0,10.0,83,0.00,,OVC150,0.02,517.00,VWS V14.01,2013-03-19 16:10:00,
2013-03-19 12:15:00,73.2,67.7,29.99,West,276,4.0,7.0,83,0.00,,OVC150,0.02,691.00,VWS V14.01,2013-03-19 16:15:00,
2013-03-19 12:20:00,73.3,67.8,29.99,NW,325,5.0,9.0,83,0.00,,OVC150,0.02,758.00,VWS V14.01,2013-03-19 16:20:00,
2013-03-19 12:25:00,73.8,68.3,29.97,NNW,344,6.0,6.0,83,0.00,,OVC150,0.02,691.00,VWS V14.01,2013-03-19 16:25:00,
2013-03-19 12:30:00,74.2,68.4,29.98,West,271,3.0,7.0,82,0.00,,OVC150,0.02,842.00,VWS V14.01,2013-03-19 16:30:00,
2013-03-19 12:35:00,74.1,67.9,29.98,WNW,301,10.0,10.0,81,0.00,,OVC150,0.02,823.00,VWS V14.01,2013-03-19 16:35:00,
2013-03-19 12:40:00,74.6,68.0,29.98,NW,319,4.0,7.0,80,0.00,,OVC150,0.02,659.00,VWS V14.01,2013-03-19 16:40:00,
2013-03-19 12:45:00,74.9,67.9,29.98,WSW,252,3.0,5.0,79,0.00,,OVC150,0.02,768.00,VWS V14.01,2013-03-19 16:45:00,
2013-03-19 12:50:00,75.0,67.3,29.99,WNW,299,3.0,7.0,77,0.00,,OVC150,0.02,468.00,VWS V14.01,2013-03-19 16:50:00,
2013-03-19 12:55:00,75.1,67.4,29.98,WNW,303,4.0,9.0,77,0.00,,OVC150,0.02,487.00,VWS V14.01,2013-03-19 16:55:00,
2013-03-19 13:00:00,75.2,67.1,29.98,SW,217,5.0,5.0,76,0.00,,OVC150,0.02,504.00,VWS V14.01,2013-03-19 17:00:00,
2013-03-19 13:05:00,75.5,67.0,29.98,SW,227,3.0,11.0,75,0.00,,OVC150,0.02,519.00,VWS V14.01,2013-03-19 17:05:00,
2013-03-19 13:10:00,75.5,66.6,29.98,WNW,284,3.0,7.0,74,0.00,,BKN110,0.02,561.00,VWS V14.01,2013-03-19 17:10:00,
2013-03-19 13:15:00,75.7,67.2,29.98,WSW,246,6.0,7.0,75,0.00,,BKN110,0.02,635.00,VWS V14.01,2013-03-19 17:15:00,
2013-03-19 13:20:00,76.5,67.6,29.98,West,279,3.0,6.0,74,0.00,,BKN110,0.02,548.00,VWS V14.01,2013-03-19 17:20:00,
2013-03-19 13:25:00,76.7,67.4,29.97,WSW,242,2.0,6.0,73,0.00,,BKN110,0.02,589.00,VWS V14.01,2013-03-19 17:25:00,
2013-03-19 13:30:00,77.0,67.3,29.96,WSW,252,0.0,3.0,72,0.00,,BKN110,0.02,554.00,VWS V14.01,2013-03-19 17:30:00,
2013-03-19 13:35:00,77.4,67.7,29.96,WNW,286,1.0,3.0,72,0.00,,BKN110,0.02,587.00,VWS V14.01,2013-03-19 17:35:00,
2013-03-19 13:40:00,77.5,66.9,29.95,WSW,242,2.0,6.0,70,0.00,,BKN110,0.02,506.00,VWS V14.01,2013-03-19 17:40:00,
2013-03-19 13:45:00,77.8,66.8,29.95,WNW,303,3.0,6.0,69,0.00,,BKN110,0.02,585.00,VWS V14.01,2013-03-19 17:45:00,
2013-03-19 13:50:00,77.4,66.4,29.95,West,277,1.0,7.0,69,0.00,,BKN110,0.02,538.00,VWS V14.01,2013-03-19 17:50:00,
2013-03-19 13:55:00,77.4,66.4,29.95,West,277,0.0,5.0,69,0.00,,OVC150,0.02,506.00,VWS V14.01,2013-03-19 17:55:00,
2013-03-19 14:00:00,77.3,66.8,29.95,West,279,4.0,6.0,70,0.00,,OVC150,0.02,559.00,VWS V14.01,2013-03-19 18:00:00,
2013-03-19 14:05:00,77.2,66.2,29.94,SW,214,2.0,4.0,69,0.00,,OVC150,0.02,552.00,VWS V14.01,2013-03-19 18:05:00,
2013-03-19 14:10:00,77.5,66.5,29.95,WNW,282,4.0,8.0,69,0.00,,OVC150,0.02,501.00,VWS V14.01,2013-03-19 18:10:00,
2013-03-19 14:15:00,77.5,66.1,29.95,West,266,1.0,6.0,68,0.00,,OVC150,0.02,457.00,VWS V14.01,2013-03-19 18:15:00,
2013-03-19 14:20:00,77.3,65.9,29.94,WSW,246,4.0,10.0,68,0.00,,OVC150,0.02,656.00,VWS V14.01,2013-03-19 18:20:00,
2013-03-19 14:25:00,77.5,66.5,29.94,SSE,161,2.0,5.0,69,0.00,,OVC150,0.02,605.00,VWS V14.01,2013-03-19 18:25:00,
2013-03-19 14:30:00,78.0,67.0,29.93,SE,135,1.0,2.0,69,0.00,,OVC150,0.02,452.00,VWS V14.01,2013-03-19 18:30:00,
2013-03-19 14:35:00,78.3,66.4,29.93,WSW,238,3.0,5.0,67,0.00,,OVC150,0.02,427.00,VWS V14.01,2013-03-19 18:35:00,
2013-03-19 14:40:00,78.5,66.6,29.93,WNW,283,4.0,4.0,67,0.00,,OVC150,0.02,420.00,VWS V14.01,2013-03-19 18:40:00,
2013-03-19 14:45:00,78.4,66.6,29.93,WSW,245,2.0,2.0,67,0.00,,OVC150,0.02,541.00,VWS V14.01,2013-03-19 18:45:00,
2013-03-19 14:50:00,78.4,66.6,29.93,NW,306,3.0,7.0,67,0.00,,OVC150,0.02,853.00,VWS V14.01,2013-03-19 18:50:00,
2013-03-19 14:55:00,78.4,66.6,29.93,WNW,290,6.0,9.0,67,0.00,,OVC150,0.02,649.00,VWS V14.01,2013-03-19 18:55:00,
2013-03-19 15:00:00,78.2,65.9,29.93,WNW,299,1.0,5.0,66,0.00,,OVC150,0.02,517.00,VWS V14.01,2013-03-19 19:00:00,
2013-03-19 15:05:00,78.1,66.3,29.93,NNW,336,3.0,7.0,67,0.00,,OVC120,0.02,438.00,VWS V14.01,2013-03-19 19:05:00,
2013-03-19 15:10:00,77.9,65.6,29.92,NW,315,0.0,4.0,66,0.00,,OVC120,0.02,381.00,VWS V14.01,2013-03-19 19:10:00,
2013-03-19 15:15:00,78.2,66.8,29.93,WNW,292,4.0,9.0,68,0.00,,OVC120,0.02,369.00,VWS V14.01,2013-03-19 19:15:00,
2013-03-19 15:20:00,78.2,67.2,29.93,WNW,297,3.0,7.0,69,0.00,,OVC120,0.02,406.00,VWS V14.01,2013-03-19 19:20:00,
2013-03-19 15:25:00,78.2,66.8,29.93,WSW,253,6.0,6.0,68,0.00,,OVC120,0.02,432.00,VWS V14.01,2013-03-19 19:25:00,
2013-03-19 15:30:00,78.3,66.9,29.93,WNW,292,3.0,6.0,68,0.00,,OVC120,0.02,374.00,VWS V14.01,2013-03-19 19:30:00,
2013-03-19 15:35:00,78.0,66.6,29.92,NW,309,5.0,10.0,68,0.00,,OVC120,0.02,367.00,VWS V14.01,2013-03-19 19:35:00,
2013-03-19 15:40:00,77.5,66.5,29.91,NNW,344,4.0,10.0,69,0.00,,OVC120,0.02,457.00,VWS V14.01,2013-03-19 19:40:00,
2013-03-19 15:45:00,77.3,66.3,29.92,NNW,346,5.0,6.0,69,0.00,,OVC120,0.02,427.00,VWS V14.01,2013-03-19 19:45:00,
2013-03-19 15:50:00,77.3,66.8,29.91,WNW,292,4.0,9.0,70,0.00,,OVC120,0.02,390.00,VWS V14.01,2013-03-19 19:50:00,
2013-03-19 15:55:00,77.3,66.8,29.91,North,355,3.0,6.0,70,0.00,,OVC120,0.02,411.00,VWS V14.01,2013-03-19 19:55:00,
2013-03-19 16:00:00,77.1,66.2,29.91,North,351,3.0,7.0,69,0.00,,SCT030,0.02,485.00,VWS V14.01,2013-03-19 20:00:00,
2013-03-19 16:05:00,77.0,66.5,29.91,North,351,2.0,3.0,70,0.00,,SCT030,0.02,403.00,VWS V14.01,2013-03-19 20:05:00,
2013-03-19 16:10:00,77.0,66.5,29.90,North,5,1.0,1.0,70,0.00,,SCT030,0.02,422.00,VWS V14.01,2013-03-19 20:10:00,
2013-03-19 16:15:00,77.1,66.6,29.91,West,270,4.0,6.0,70,0.00,,SCT030,0.02,396.00,VWS V14.01,2013-03-19 20:15:00,
2013-03-19 16:20:00,77.4,66.4,29.90,WNW,289,2.0,3.0,69,0.00,,SCT030,0.02,392.00,VWS V14.01,2013-03-19 20:20:00,
2013-03-19 16:25:00,77.6,67.1,29.90,NNW,347,2.0,4.0,70,0.00,,SCT030,0.02,378.00,VWS V14.01,2013-03-19 20:25:00,
2013-03-19 16:30:00,77.6,66.6,29.90,SW,234,2.0,4.0,69,0.00,,SCT030,0.02,366.00,VWS V14.01,2013-03-19 20:30:00,
2013-03-19 16:35:00,78.0,67.0,29.90,SSW,197,2.0,4.0,69,0.00,,SCT030,0.02,322.00,VWS V14.01,2013-03-19 20:35:00,
2013-03-19 16:40:00,78.2,66.4,29.90,SSW,200,0.0,2.0,67,0.00,,SCT030,0.02,330.00,VWS V14.01,2013-03-19 20:40:00,
2013-03-19 16:45:00,78.2,66.8,29.89,SSW,201,0.0,0.0,68,0.00,,SCT030,0.02,322.00,VWS V14.01,2013-03-19 20:45:00,
2013-03-19 16:50:00,78.6,67.2,29.89,SSW,208,1.0,2.0,68,0.00,,SCT030,0.02,329.00,VWS V14.01,2013-03-19 20:50:00,
2013-03-19 16:55:00,79.0,67.1,29.88,SSW,209,1.0,2.0,67,0.00,,SCT030,0.02,297.00,VWS V14.01,2013-03-19 20:55:00,
2013-03-19 17:00:00,79.2,66.9,29.88,SSW,209,0.0,3.0,66,0.00,,SCT030,0.02,274.00,VWS V14.01,2013-03-19 21:00:00,
2013-03-19 17:05:00,79.3,66.5,29.88,SSW,210,1.0,3.0,65,0.00,,SCT030,0.02,313.00,VWS V14.01,2013-03-19 21:05:00,
2013-03-19 17:10:00,79.4,67.1,29.88,SSW,210,2.0,2.0,66,0.00,,SCT030,0.02,246.00,VWS V14.01,2013-03-19 21:10:00,
2013-03-19 17:15:00,79.5,66.7,29.88,SSW,210,1.0,2.0,65,0.00,,SCT030,0.02,308.00,VWS V14.01,2013-03-19 21:15:00,
2013-03-19 17:20:00,79.4,66.6,29.88,SSW,196,0.0,0.0,65,0.00,,SCT030,0.02,287.00,VWS V14.01,2013-03-19 21:20:00,
2013-03-19 17:25:00,79.3,66.5,29.87,South,180,0.0,3.0,65,0.00,,SCT030,0.02,257.00,VWS V14.01,2013-03-19 21:25:00,
2013-03-19 17:30:00,79.2,66.9,29.87,South,180,0.0,2.0,66,0.00,,SCT030,0.02,241.00,VWS V14.01,2013-03-19 21:30:00,
2013-03-19 17:35:00,79.1,66.8,29.87,South,179,0.0,0.0,66,0.00,,SCT030,0.02,239.00,VWS V14.01,2013-03-19 21:35:00,
2013-03-19 17:40:00,79.2,67.3,29.87,South,180,0.0,2.0,67,0.00,,SCT030,0.02,267.00,VWS V14.01,2013-03-19 21:40:00,
2013-03-19 17:45:00,79.1,66.8,29.87,South,180,0.0,0.0,66,0.00,,SCT030,0.02,411.00,VWS V14.01,2013-03-19 21:45:00,
2013-03-19 17:50:00,79.1,66.8,29.87,South,181,1.0,1.0,66,0.00,,SCT030,0.02,533.00,VWS V14.01,2013-03-19 21:50:00,
2013-03-19 17:55:00,78.8,66.5,29.86,WNW,286,3.0,4.0,66,0.00,,FEW070,0.02,360.00,VWS V14.01,2013-03-19 21:55:00,
2013-03-19 18:00:00,78.7,66.8,29.87,West,273,2.0,3.0,67,0.00,,FEW070,0.02,403.00,VWS V14.01,2013-03-19 22:00:00,
2013-03-19 18:05:00,78.6,66.7,29.87,West,274,1.0,4.0,67,0.00,,FEW070,0.02,229.00,VWS V14.01,2013-03-19 22:05:00,
2013-03-19 18:10:00,78.4,66.6,29.87,West,275,2.0,2.0,67,0.00,,FEW070,0.02,272.00,VWS V14.01,2013-03-19 22:10:00,
2013-03-19 18:15:00,78.4,66.6,29.87,West,275,1.0,1.0,67,0.00,,FEW070,0.02,322.00,VWS V14.01,2013-03-19 22:15:00,
2013-03-19 18:20:00,78.3,66.9,29.87,West,275,2.0,3.0,68,0.00,,FEW070,0.02,297.00,VWS V14.01,2013-03-19 22:20:00,
2013-03-19 18:25:00,78.2,66.8,29.88,West,275,0.0,3.0,68,0.00,,FEW070,0.02,281.00,VWS V14.01,2013-03-19 22:25:00,
2013-03-19 18:30:00,77.9,66.5,29.88,West,275,0.0,1.0,68,0.00,,FEW070,0.02,281.00,VWS V14.01,2013-03-19 22:30:00,
2013-03-19 18:35:00,77.7,66.7,29.88,West,275,0.0,0.0,69,0.00,,FEW070,0.02,264.00,VWS V14.01,2013-03-19 22:35:00,
2013-03-19 18:40:00,78.2,68.4,29.89,West,275,0.0,0.0,72,0.00,,FEW070,0.02,241.00,VWS V14.01,2013-03-19 22:40:00,
2013-03-19 18:45:00,78.3,68.5,29.89,West,275,0.0,0.0,72,0.00,,FEW070,0.02,209.00,VWS V14.01,2013-03-19 22:45:00,
2013-03-19 18:50:00,78.4,69.0,29.89,SE,126,5.0,5.0,73,0.00,,FEW070,0.02,172.00,VWS V14.01,2013-03-19 22:50:00,
2013-03-19 18:55:00,78.0,68.2,29.89,ESE,123,0.0,1.0,72,0.00,,FEW070,0.02,156.00,VWS V14.01,2013-03-19 22:55:00,
2013-03-19 19:00:00,78.0,68.2,29.89,ESE,123,0.0,0.0,72,0.00,,FEW070,0.02,132.00,VWS V14.01,2013-03-19 23:00:00,
2013-03-19 19:05:00,78.2,68.8,29.89,ESE,123,0.0,1.0,73,0.00,,FEW070,0.02,125.00,VWS V14.01,2013-03-19 23:05:00,
2013-03-19 19:10:00,78.2,69.2,29.90,ESE,123,0.0,0.0,74,0.00,,FEW070,0.02,111.00,VWS V14.01,2013-03-19 23:10:00,
2013-03-19 19:15:00,78.0,69.1,29.90,SE,124,0.0,0.0,74,0.00,,FEW070,0.02,97.00,VWS V14.01,2013-03-19 23:15:00,
2013-03-19 19:20:00,77.9,68.9,29.90,ESE,123,0.0,0.0,74,0.00,,FEW070,0.02,90.00,VWS V14.01,2013-03-19 23:20:00,
2013-03-19 19:25:00,77.7,69.2,29.90,ESE,123,0.0,0.0,75,0.00,,FEW070,0.02,84.00,VWS V14.01,2013-03-19 23:25:00,
2013-03-19 19:30:00,77.3,68.8,29.90,ESE,123,0.0,0.0,75,0.00,,FEW070,0.02,81.00,VWS V14.01,2013-03-19 23:30:00,
2013-03-19 19:35:00,77.1,68.6,29.91,ESE,123,0.0,0.0,75,0.00,,FEW070,0.02,77.00,VWS V14.01,2013-03-19 23:35:00,
2013-03-19 19:40:00,76.9,68.4,29.91,ESE,123,0.0,0.0,75,0.00,,FEW070,0.02,76.00,VWS V14.01,2013-03-19 23:40:00,
2013-03-19 19:45:00,76.7,68.6,29.91,ESE,123,0.0,0.0,76,0.00,,FEW070,0.02,74.00,VWS V14.01,2013-03-19 23:45:00,
2013-03-19 19:50:00,76.5,68.4,29.91,ESE,123,0.0,0.0,76,0.00,,FEW070,0.02,74.00,VWS V14.01,2013-03-19 23:50:00,
2013-03-19 19:55:00,76.3,68.6,29.91,ESE,123,0.0,0.0,77,0.00,,FEW070,0.02,74.00,VWS V14.01,2013-03-19 23:55:00,
2013-03-19 20:00:00,76.0,68.3,29.91,ESE,123,0.0,1.0,77,0.00,,FEW070,0.02,74.00,VWS V14.01,2013-03-20 00:00:00,
2013-03-19 20:05:00,75.6,68.3,29.91,ESE,123,0.0,0.0,78,0.00,,FEW070,0.02,74.00,VWS V14.01,2013-03-20 00:05:00,
2013-03-19 20:10:00,75.4,68.4,29.91,ESE,123,0.0,0.0,79,0.00,,FEW070,0.02,74.00,VWS V14.01,2013-03-20 00:10:00,
2013-03-19 20:15:00,75.2,68.2,29.91,ESE,123,0.0,0.0,79,0.00,,FEW070,0.02,74.00,VWS V14.01,2013-03-20 00:15:00,
2013-03-19 20:20:00,74.9,68.3,29.91,ESE,123,0.0,0.0,80,0.00,,FEW070,0.02,74.00,VWS V14.01,2013-03-20 00:20:00,
2013-03-19 20:25:00,74.6,68.4,29.92,ESE,123,0.0,0.0,81,0.00,,FEW070,0.02,74.00,VWS V14.01,2013-03-20 00:25:00,
2013-03-19 20:30:00,74.4,68.2,29.91,ESE,123,0.0,0.0,81,0.00,,FEW070,0.02,74.00,VWS V14.01,2013-03-20 00:30:00,
2013-03-19 20:35:00,74.2,68.0,29.92,ESE,123,0.0,0.0,81,0.00,,FEW070,0.02,74.00,VWS V14.01,2013-03-20 00:35:00,
2013-03-19 20:40:00,74.0,68.2,29.92,ESE,123,0.0,0.0,82,0.00,,FEW070,0.02,74.00,VWS V14.01,2013-03-20 00:40:00,
2013-03-19 20:45:00,73.8,68.0,29.92,ESE,123,0.0,0.0,82,0.00,,FEW070,0.02,74.00,VWS V14.01,2013-03-20 00:45:00,
2013-03-19 20:50:00,73.5,68.0,29.92,ESE,123,0.0,0.0,83,0.00,,FEW070,0.02,74.00,VWS V14.01,2013-03-20 00:50:00,
2013-03-19 20:55:00,73.3,67.8,29.92,ESE,123,0.0,0.0,83,0.00,,FEW070,0.02,74.00,VWS V14.01,2013-03-20 00:55:00,
2013-03-19 21:00:00,73.2,67.7,29.92,ESE,123,0.0,0.0,83,0.00,,FEW070,0.02,74.00,VWS V14.01,2013-03-20 01:00:00,
2013-03-19 21:05:00,73.0,67.9,29.92,ESE,123,0.0,0.0,84,0.00,,FEW070,0.02,74.00,VWS V14.01,2013-03-20 01:05:00,
2013-03-19 21:10:00,72.8,67.7,29.92,ESE,123,0.0,2.0,84,0.00,,FEW070,0.02,74.00,VWS V14.01,2013-03-20 01:10:00,
2013-03-19 21:15:00,72.6,67.8,29.92,ESE,123,0.0,2.0,85,0.00,,FEW070,0.02,74.00,VWS V14.01,2013-03-20 01:15:00,
2013-03-19 21:20:00,72.5,67.7,29.92,ESE,123,0.0,0.0,85,0.00,,FEW070,0.02,74.00,VWS V14.01,2013-03-20 01:20:00,
2013-03-19 21:25:00,72.3,67.5,29.92,ESE,123,0.0,0.0,85,0.00,,FEW070,0.02,74.00,VWS V14.01,2013-03-20 01:25:00,
2013-03-19 21:30:00,72.1,67.7,29.93,ESE,123,0.0,1.0,86,0.00,,FEW070,0.02,74.00,VWS V14.01,2013-03-20 01:30:00,
2013-03-19 21:35:00,72.0,67.6,29.93,ESE,123,0.0,1.0,86,0.00,,FEW070,0.02,74.00,VWS V14.01,2013-03-20 01:35:00,
2013-03-19 21:40:00,71.9,67.5,29.93,ESE,123,0.0,0.0,86,0.00,,FEW070,0.02,74.00,VWS V14.01,2013-03-20 01:40:00,
2013-03-19 21:45:00,71.7,67.6,29.93,ESE,123,0.0,0.0,87,0.00,,FEW070,0.02,74.00,VWS V14.01,2013-03-20 01:45:00,
2013-03-19 21:50:00,71.6,67.5,29.93,ESE,123,0.0,0.0,87,0.00,,FEW070,0.02,74.00,VWS V14.01,2013-03-20 01:50:00,
2013-03-19 21:55:00,71.4,67.3,29.93,ESE,123,0.0,0.0,87,0.00,,FEW070,0.02,74.00,VWS V14.01,2013-03-20 01:55:00,
2013-03-19 22:00:00,71.3,67.6,29.93,ESE,123,0.0,0.0,88,0.00,,FEW070,0.02,74.00,VWS V14.01,2013-03-20 02:00:00,
2013-03-19 22:05:00,71.2,67.5,29.93,ESE,123,0.0,0.0,88,0.00,,FEW070,0.02,74.00,VWS V14.01,2013-03-20 02:05:00,
2013-03-19 22:10:00,71.1,67.4,29.93,ESE,123,0.0,0.0,88,0.00,,FEW070,0.02,74.00,VWS V14.01,2013-03-20 02:10:00,
2013-03-19 22:15:00,71.0,67.3,29.93,ESE,123,0.0,0.0,88,0.00,,FEW070,0.02,74.00,VWS V14.01,2013-03-20 02:15:00,
2013-03-19 22:20:00,70.9,67.2,29.93,ESE,123,0.0,0.0,88,0.00,,FEW070,0.02,74.00,VWS V14.01,2013-03-20 02:20:00,
2013-03-19 22:25:00,70.7,67.0,29.94,ESE,123,0.0,0.0,88,0.00,,FEW070,0.02,74.00,VWS V14.01,2013-03-20 02:25:00,
2013-03-19 22:30:00,70.6,67.2,29.94,ESE,123,0.0,0.0,89,0.00,,FEW070,0.02,74.00,VWS V14.01,2013-03-20 02:30:00,
2013-03-19 22:35:00,70.5,67.1,29.94,ESE,123,0.0,0.0,89,0.00,,FEW070,0.02,74.00,VWS V14.01,2013-03-20 02:35:00,
2013-03-19 22:40:00,70.4,67.0,29.93,ESE,123,0.0,1.0,89,0.00,,FEW070,0.02,74.00,VWS V14.01,2013-03-20 02:40:00,
2013-03-19 22:45:00,70.3,66.9,29.94,ESE,123,0.0,1.0,89,0.00,,FEW070,0.02,74.00,VWS V14.01,2013-03-20 02:45:00,
2013-03-19 22:50:00,70.3,66.9,29.94,ESE,123,0.0,0.0,89,0.00,,FEW070,0.02,74.00,VWS V14.01,2013-03-20 02:50:00,
2013-03-19 22:55:00,70.1,66.7,29.94,ESE,123,0.0,0.0,89,0.00,,FEW070,0.02,74.00,VWS V14.01,2013-03-20 02:55:00,
2013-03-19 23:00:00,70.1,66.7,29.94,ESE,123,0.0,1.0,89,0.00,,FEW070,0.02,74.00,VWS V14.01,2013-03-20 03:00:00,
2013-03-19 23:05:00,70.0,66.9,29.94,ESE,123,0.0,0.0,90,0.00,,FEW070,0.02,74.00,VWS V14.01,2013-03-20 03:05:00,
2013-03-19 23:10:00,69.9,66.8,29.93,ESE,123,0.0,0.0,90,0.00,,FEW070,0.02,74.00,VWS V14.01,2013-03-20 03:10:00,
2013-03-19 23:15:00,69.8,66.7,29.93,ESE,123,0.0,0.0,90,0.00,,FEW070,0.02,74.00,VWS V14.01,2013-03-20 03:15:00,
2013-03-19 23:20:00,69.7,66.6,29.93,ESE,123,0.0,0.0,90,0.00,,FEW070,0.02,74.00,VWS V14.01,2013-03-20 03:20:00,
2013-03-19 23:25:00,69.6,66.5,29.93,ESE,123,0.0,0.0,90,0.00,,FEW070,0.02,74.00,VWS V14.01,2013-03-20 03:25:00,
2013-03-19 23:30:00,69.5,66.4,29.93,ESE,123,0.0,0.0,90,0.00,,FEW070,0.02,74.00,VWS V14.01,2013-03-20 03:30:00,
2013-03-19 23:35:00,69.4,66.3,29.93,ESE,123,0.0,0.0,90,0.00,,FEW070,0.02,74.00,VWS V14.01,2013-03-20 03:35:00,
2013-03-19 23:40:00,69.4,66.3,29.93,ESE,123,0.0,0.0,90,0.00,,FEW070,0.02,74.00,VWS V14.01,2013-03-20 03:40:00,
2013-03-19 23:45:00,69.2,66.5,29.92,ESE,123,0.0,1.0,91,0.00,,FEW070,0.02,74.00,VWS V14.01,2013-03-20 03:45:00,
2013-03-19 23:50:00,69.2,66.5,29.92,ESE,123,0.0,1.0,91,0.00,,FEW070,0.02,74.00,VWS V14.01,2013-03-20 03:50:00,
2013-03-19 23:55:00,69.1,66.4,29.92,ESE,123,0.0,0.0,91,0.00,,FEW070,0.02,74.00,VWS V14.01,2013-03-20 03:55:00,